sensor_id;sensor_type;location;lat;lon;timestamp;P1;durP1;ratioP1;P2;durP2;ratioP2
7076;SDS011;3579;48.956;9.154;2024-03-02T00:00:21;2.00;;;1.80;;
7076;SDS011;3579;48.956;9.154;2024-03-02T00:02:48;2.13;;;1.93;;
7076;SDS011;3579;48.956;9.154;2024-03-02T00:05:15;2.20;;;2.00;;
7076;SDS011;3579;48.956;9.154;2024-03-02T00:07:47;2.00;;;1.80;;
7076;SDS011;3579;48.956;9.154;2024-03-02T00:10:19;2.03;;;1.83;;
7076;SDS011;3579;48.956;9.154;2024-03-02T00:12:50;2.63;;;2.10;;
7076;SDS011;3579;48.956;9.154;2024-03-02T00:18:01;2.27;;;2.00;;
7076;SDS011;3579;48.956;9.154;2024-03-02T00:20:28;1.93;;;1.73;;
7076;SDS011;3579;48.956;9.154;2024-03-02T00:23:02;2.17;;;1.90;;
7076;SDS011;3579;48.956;9.154;2024-03-02T00:25:37;2.07;;;1.87;;
7076;SDS011;3579;48.956;9.154;2024-03-02T00:28:17;2.60;;;2.10;;
7076;SDS011;3579;48.956;9.154;2024-03-02T00:30:54;2.17;;;1.93;;
7076;SDS011;3579;48.956;9.154;2024-03-02T00:33:20;2.20;;;1.83;;
7076;SDS011;3579;48.956;9.154;2024-03-02T00:35:47;2.03;;;1.83;;
7076;SDS011;3579;48.956;9.154;2024-03-02T00:38:14;1.77;;;1.67;;
7076;SDS011;3579;48.956;9.154;2024-03-02T00:40:43;2.17;;;1.93;;
7076;SDS011;3579;48.956;9.154;2024-03-02T00:45:54;2.00;;;1.80;;
7076;SDS011;3579;48.956;9.154;2024-03-02T00:48:20;2.00;;;1.80;;
7076;SDS011;3579;48.956;9.154;2024-03-02T00:50:50;2.00;;;1.73;;
7076;SDS011;3579;48.956;9.154;2024-03-02T00:53:20;2.50;;;2.07;;
7076;SDS011;3579;48.956;9.154;2024-03-02T00:55:50;2.00;;;1.80;;
7076;SDS011;3579;48.956;9.154;2024-03-02T00:58:16;2.20;;;2.00;;
7076;SDS011;3579;48.956;9.154;2024-03-02T01:00:42;1.70;;;1.60;;
7076;SDS011;3579;48.956;9.154;2024-03-02T01:03:08;2.10;;;1.63;;
7076;SDS011;3579;48.956;9.154;2024-03-02T01:05:36;2.13;;;1.87;;
7076;SDS011;3579;48.956;9.154;2024-03-02T01:08:02;2.20;;;1.57;;
7076;SDS011;3579;48.956;9.154;2024-03-02T01:10:28;2.00;;;1.80;;
7076;SDS011;3579;48.956;9.154;2024-03-02T01:12:54;2.00;;;1.80;;
7076;SDS011;3579;48.956;9.154;2024-03-02T01:15:20;2.10;;;1.90;;
7076;SDS011;3579;48.956;9.154;2024-03-02T01:17:46;2.43;;;2.00;;
7076;SDS011;3579;48.956;9.154;2024-03-02T01:20:12;2.63;;;2.10;;
7076;SDS011;3579;48.956;9.154;2024-03-02T01:22:38;2.30;;;1.93;;
7076;SDS011;3579;48.956;9.154;2024-03-02T01:25:04;2.33;;;2.00;;
7076;SDS011;3579;48.956;9.154;2024-03-02T01:27:31;2.10;;;1.90;;
7076;SDS011;3579;48.956;9.154;2024-03-02T01:29:57;1.77;;;1.63;;
7076;SDS011;3579;48.956;9.154;2024-03-02T01:32:25;2.00;;;1.80;;
7076;SDS011;3579;48.956;9.154;2024-03-02T01:34:51;1.97;;;1.80;;
7076;SDS011;3579;48.956;9.154;2024-03-02T01:37:17;1.97;;;1.77;;
7076;SDS011;3579;48.956;9.154;2024-03-02T01:39:43;2.00;;;1.80;;
7076;SDS011;3579;48.956;9.154;2024-03-02T01:42:09;2.20;;;1.90;;
7076;SDS011;3579;48.956;9.154;2024-03-02T01:44:36;2.37;;;1.90;;
7076;SDS011;3579;48.956;9.154;2024-03-02T01:47:02;1.90;;;1.70;;
7076;SDS011;3579;48.956;9.154;2024-03-02T01:49:28;2.20;;;2.00;;
7076;SDS011;3579;48.956;9.154;2024-03-02T01:51:54;2.57;;;2.00;;
7076;SDS011;3579;48.956;9.154;2024-03-02T01:54:20;2.00;;;1.80;;
7076;SDS011;3579;48.956;9.154;2024-03-02T01:56:46;2.40;;;2.20;;
7076;SDS011;3579;48.956;9.154;2024-03-02T01:59:12;2.50;;;2.00;;
7076;SDS011;3579;48.956;9.154;2024-03-02T02:01:38;2.10;;;1.90;;
7076;SDS011;3579;48.956;9.154;2024-03-02T02:04:04;2.00;;;1.73;;
7076;SDS011;3579;48.956;9.154;2024-03-02T02:06:32;2.00;;;1.80;;
7076;SDS011;3579;48.956;9.154;2024-03-02T02:08:58;2.00;;;1.80;;
7076;SDS011;3579;48.956;9.154;2024-03-02T02:11:24;2.20;;;2.00;;
7076;SDS011;3579;48.956;9.154;2024-03-02T02:13:50;2.10;;;1.90;;
7076;SDS011;3579;48.956;9.154;2024-03-02T02:16:16;2.10;;;1.87;;
7076;SDS011;3579;48.956;9.154;2024-03-02T02:18:42;2.13;;;1.93;;
7076;SDS011;3579;48.956;9.154;2024-03-02T02:21:08;2.00;;;1.80;;
7076;SDS011;3579;48.956;9.154;2024-03-02T02:23:34;2.10;;;1.90;;
7076;SDS011;3579;48.956;9.154;2024-03-02T02:26:00;2.00;;;1.80;;
7076;SDS011;3579;48.956;9.154;2024-03-02T02:28:28;1.93;;;1.77;;
7076;SDS011;3579;48.956;9.154;2024-03-02T02:30:54;2.10;;;1.90;;
7076;SDS011;3579;48.956;9.154;2024-03-02T02:33:21;2.87;;;2.30;;
7076;SDS011;3579;48.956;9.154;2024-03-02T02:35:47;2.23;;;2.03;;
7076;SDS011;3579;48.956;9.154;2024-03-02T02:38:13;2.17;;;1.90;;
7076;SDS011;3579;48.956;9.154;2024-03-02T02:40:39;2.20;;;2.00;;
7076;SDS011;3579;48.956;9.154;2024-03-02T02:43:05;2.07;;;1.87;;
7076;SDS011;3579;48.956;9.154;2024-03-02T02:45:32;2.10;;;1.80;;
7076;SDS011;3579;48.956;9.154;2024-03-02T02:47:58;1.90;;;1.70;;
7076;SDS011;3579;48.956;9.154;2024-03-02T02:50:24;2.03;;;1.70;;
7076;SDS011;3579;48.956;9.154;2024-03-02T02:52:50;2.60;;;2.00;;
7076;SDS011;3579;48.956;9.154;2024-03-02T02:55:16;2.00;;;1.80;;
7076;SDS011;3579;48.956;9.154;2024-03-02T02:57:42;1.97;;;1.77;;
7076;SDS011;3579;48.956;9.154;2024-03-02T03:00:10;2.10;;;1.90;;
7076;SDS011;3579;48.956;9.154;2024-03-02T03:02:43;2.10;;;1.50;;
7076;SDS011;3579;48.956;9.154;2024-03-02T03:05:12;1.77;;;1.60;;
7076;SDS011;3579;48.956;9.154;2024-03-02T03:07:39;2.10;;;1.80;;
7076;SDS011;3579;48.956;9.154;2024-03-02T03:10:06;1.93;;;1.73;;
7076;SDS011;3579;48.956;9.154;2024-03-02T03:12:36;2.20;;;1.97;;
7076;SDS011;3579;48.956;9.154;2024-03-02T03:15:02;2.00;;;1.80;;
7076;SDS011;3579;48.956;9.154;2024-03-02T03:17:30;2.00;;;1.80;;
7076;SDS011;3579;48.956;9.154;2024-03-02T03:19:56;2.10;;;1.90;;
7076;SDS011;3579;48.956;9.154;2024-03-02T03:22:22;1.90;;;1.70;;
7076;SDS011;3579;48.956;9.154;2024-03-02T03:24:48;2.03;;;1.83;;
7076;SDS011;3579;48.956;9.154;2024-03-02T03:27:14;2.10;;;1.70;;
7076;SDS011;3579;48.956;9.154;2024-03-02T03:29:40;1.90;;;1.70;;
7076;SDS011;3579;48.956;9.154;2024-03-02T03:32:06;2.00;;;1.80;;
7076;SDS011;3579;48.956;9.154;2024-03-02T03:34:32;2.53;;;2.00;;
7076;SDS011;3579;48.956;9.154;2024-03-02T03:36:59;2.63;;;1.90;;
7076;SDS011;3579;48.956;9.154;2024-03-02T03:39:25;2.60;;;1.87;;
7076;SDS011;3579;48.956;9.154;2024-03-02T03:41:51;2.00;;;1.80;;
7076;SDS011;3579;48.956;9.154;2024-03-02T03:44:17;1.80;;;1.50;;
7076;SDS011;3579;48.956;9.154;2024-03-02T03:46:43;2.20;;;2.00;;
7076;SDS011;3579;48.956;9.154;2024-03-02T03:49:09;2.20;;;1.70;;
7076;SDS011;3579;48.956;9.154;2024-03-02T03:51:35;2.00;;;1.73;;
7076;SDS011;3579;48.956;9.154;2024-03-02T03:54:01;2.27;;;1.80;;
7076;SDS011;3579;48.956;9.154;2024-03-02T03:56:27;2.00;;;1.80;;
7076;SDS011;3579;48.956;9.154;2024-03-02T03:58:53;1.97;;;1.77;;
7076;SDS011;3579;48.956;9.154;2024-03-02T04:01:19;2.17;;;1.90;;
7076;SDS011;3579;48.956;9.154;2024-03-02T04:03:47;1.80;;;1.70;;
7076;SDS011;3579;48.956;9.154;2024-03-02T04:06:14;1.97;;;1.77;;
7076;SDS011;3579;48.956;9.154;2024-03-02T04:08:41;2.00;;;1.80;;
7076;SDS011;3579;48.956;9.154;2024-03-02T04:11:08;2.00;;;1.80;;
7076;SDS011;3579;48.956;9.154;2024-03-02T04:13:34;2.00;;;1.80;;
7076;SDS011;3579;48.956;9.154;2024-03-02T04:16:00;1.90;;;1.70;;
7076;SDS011;3579;48.956;9.154;2024-03-02T04:18:26;1.80;;;1.70;;
7076;SDS011;3579;48.956;9.154;2024-03-02T04:20:52;1.90;;;1.70;;
7076;SDS011;3579;48.956;9.154;2024-03-02T04:23:18;1.63;;;1.53;;
7076;SDS011;3579;48.956;9.154;2024-03-02T04:25:44;2.00;;;1.80;;
7076;SDS011;3579;48.956;9.154;2024-03-02T04:28:10;2.10;;;1.90;;
7076;SDS011;3579;48.956;9.154;2024-03-02T04:30:38;2.13;;;1.90;;
7076;SDS011;3579;48.956;9.154;2024-03-02T04:33:04;2.00;;;1.80;;
7076;SDS011;3579;48.956;9.154;2024-03-02T04:35:32;2.37;;;1.80;;
7076;SDS011;3579;48.956;9.154;2024-03-02T04:37:58;2.00;;;1.80;;
7076;SDS011;3579;48.956;9.154;2024-03-02T04:40:24;2.00;;;1.80;;
7076;SDS011;3579;48.956;9.154;2024-03-02T04:42:50;2.23;;;1.80;;
7076;SDS011;3579;48.956;9.154;2024-03-02T04:45:17;2.00;;;1.80;;
7076;SDS011;3579;48.956;9.154;2024-03-02T04:47:43;2.03;;;1.83;;
7076;SDS011;3579;48.956;9.154;2024-03-02T04:50:09;1.70;;;1.60;;
7076;SDS011;3579;48.956;9.154;2024-03-02T04:52:35;2.30;;;1.90;;
7076;SDS011;3579;48.956;9.154;2024-03-02T04:55:02;2.10;;;1.80;;
7076;SDS011;3579;48.956;9.154;2024-03-02T04:57:35;1.97;;;1.73;;
7076;SDS011;3579;48.956;9.154;2024-03-02T05:00:01;2.03;;;1.83;;
7076;SDS011;3579;48.956;9.154;2024-03-02T05:02:32;1.60;;;1.50;;
7076;SDS011;3579;48.956;9.154;2024-03-02T05:04:58;1.60;;;1.47;;
7076;SDS011;3579;48.956;9.154;2024-03-02T05:07:24;2.40;;;2.03;;
7076;SDS011;3579;48.956;9.154;2024-03-02T05:09:50;1.90;;;1.70;;
7076;SDS011;3579;48.956;9.154;2024-03-02T05:12:16;2.33;;;1.90;;
7076;SDS011;3579;48.956;9.154;2024-03-02T05:15:14;2.10;;;1.80;;
7076;SDS011;3579;48.956;9.154;2024-03-02T05:17:41;2.33;;;1.90;;
7076;SDS011;3579;48.956;9.154;2024-03-02T05:20:10;1.90;;;1.70;;
7076;SDS011;3579;48.956;9.154;2024-03-02T05:22:37;1.93;;;1.73;;
7076;SDS011;3579;48.956;9.154;2024-03-02T05:25:04;2.63;;;1.90;;
7076;SDS011;3579;48.956;9.154;2024-03-02T05:27:30;1.80;;;1.53;;
7076;SDS011;3579;48.956;9.154;2024-03-02T05:29:58;2.17;;;1.97;;
7076;SDS011;3579;48.956;9.154;2024-03-02T05:32:24;2.20;;;2.00;;
7076;SDS011;3579;48.956;9.154;2024-03-02T05:34:51;2.13;;;1.80;;
7076;SDS011;3579;48.956;9.154;2024-03-02T05:37:17;2.27;;;1.93;;
7076;SDS011;3579;48.956;9.154;2024-03-02T05:39:43;1.90;;;1.70;;
7076;SDS011;3579;48.956;9.154;2024-03-02T05:42:09;2.00;;;1.70;;
7076;SDS011;3579;48.956;9.154;2024-03-02T05:44:36;1.90;;;1.70;;
7076;SDS011;3579;48.956;9.154;2024-03-02T05:47:02;2.33;;;1.73;;
7076;SDS011;3579;48.956;9.154;2024-03-02T05:49:29;1.97;;;1.67;;
7076;SDS011;3579;48.956;9.154;2024-03-02T05:51:55;1.80;;;1.70;;
7076;SDS011;3579;48.956;9.154;2024-03-02T05:54:21;2.17;;;1.80;;
7076;SDS011;3579;48.956;9.154;2024-03-02T05:56:47;2.33;;;2.00;;
7076;SDS011;3579;48.956;9.154;2024-03-02T05:59:13;2.00;;;1.80;;
7076;SDS011;3579;48.956;9.154;2024-03-02T06:01:43;2.30;;;1.83;;
7076;SDS011;3579;48.956;9.154;2024-03-02T06:04:13;1.90;;;1.70;;
7076;SDS011;3579;48.956;9.154;2024-03-02T06:06:40;1.90;;;1.80;;
7076;SDS011;3579;48.956;9.154;2024-03-02T06:09:06;2.07;;;1.70;;
7076;SDS011;3579;48.956;9.154;2024-03-02T06:11:42;2.03;;;1.73;;
7076;SDS011;3579;48.956;9.154;2024-03-02T06:14:08;1.60;;;1.50;;
7076;SDS011;3579;48.956;9.154;2024-03-02T06:16:34;1.90;;;1.70;;
7076;SDS011;3579;48.956;9.154;2024-03-02T06:19:01;2.03;;;1.83;;
7076;SDS011;3579;48.956;9.154;2024-03-02T06:21:27;1.70;;;1.60;;
7076;SDS011;3579;48.956;9.154;2024-03-02T06:23:53;2.07;;;1.70;;
7076;SDS011;3579;48.956;9.154;2024-03-02T06:26:20;2.17;;;1.80;;
7076;SDS011;3579;48.956;9.154;2024-03-02T06:28:46;1.97;;;1.77;;
7076;SDS011;3579;48.956;9.154;2024-03-02T06:31:12;1.93;;;1.73;;
7076;SDS011;3579;48.956;9.154;2024-03-02T06:33:38;2.17;;;1.80;;
7076;SDS011;3579;48.956;9.154;2024-03-02T06:36:05;2.13;;;1.93;;
7076;SDS011;3579;48.956;9.154;2024-03-02T06:38:34;2.10;;;1.90;;
7076;SDS011;3579;48.956;9.154;2024-03-02T06:41:00;2.00;;;1.80;;
7076;SDS011;3579;48.956;9.154;2024-03-02T06:43:26;1.83;;;1.63;;
7076;SDS011;3579;48.956;9.154;2024-03-02T06:45:52;1.70;;;1.60;;
7076;SDS011;3579;48.956;9.154;2024-03-02T06:48:18;2.53;;;1.87;;
7076;SDS011;3579;48.956;9.154;2024-03-02T06:50:49;1.90;;;1.70;;
7076;SDS011;3579;48.956;9.154;2024-03-02T06:53:15;2.47;;;1.70;;
7076;SDS011;3579;48.956;9.154;2024-03-02T06:55:45;2.20;;;2.00;;
7076;SDS011;3579;48.956;9.154;2024-03-02T06:58:12;1.60;;;1.50;;
7076;SDS011;3579;48.956;9.154;2024-03-02T07:00:41;1.90;;;1.70;;
7076;SDS011;3579;48.956;9.154;2024-03-02T07:03:08;2.30;;;1.73;;
7076;SDS011;3579;48.956;9.154;2024-03-02T07:05:34;2.27;;;1.70;;
7076;SDS011;3579;48.956;9.154;2024-03-02T07:08:00;1.93;;;1.77;;
7076;SDS011;3579;48.956;9.154;2024-03-02T07:10:27;2.13;;;1.93;;
7076;SDS011;3579;48.956;9.154;2024-03-02T07:12:53;2.43;;;1.90;;
7076;SDS011;3579;48.956;9.154;2024-03-02T07:15:19;2.00;;;1.70;;
7076;SDS011;3579;48.956;9.154;2024-03-02T07:17:54;1.90;;;1.67;;
7076;SDS011;3579;48.956;9.154;2024-03-02T07:20:20;1.70;;;1.60;;
7076;SDS011;3579;48.956;9.154;2024-03-02T07:22:46;1.50;;;1.40;;
7076;SDS011;3579;48.956;9.154;2024-03-02T07:25:13;1.60;;;1.50;;
7076;SDS011;3579;48.956;9.154;2024-03-02T07:27:39;1.83;;;1.50;;
7076;SDS011;3579;48.956;9.154;2024-03-02T07:30:06;2.13;;;1.80;;
7076;SDS011;3579;48.956;9.154;2024-03-02T07:32:32;1.80;;;1.57;;
7076;SDS011;3579;48.956;9.154;2024-03-02T07:34:58;1.87;;;1.63;;
7076;SDS011;3579;48.956;9.154;2024-03-02T07:37:26;1.83;;;1.60;;
7076;SDS011;3579;48.956;9.154;2024-03-02T07:39:52;1.97;;;1.77;;
7076;SDS011;3579;48.956;9.154;2024-03-02T07:42:18;1.90;;;1.70;;
7076;SDS011;3579;48.956;9.154;2024-03-02T07:44:44;2.20;;;1.90;;
7076;SDS011;3579;48.956;9.154;2024-03-02T07:47:11;2.37;;;1.70;;
7076;SDS011;3579;48.956;9.154;2024-03-02T07:49:37;1.87;;;1.70;;
7076;SDS011;3579;48.956;9.154;2024-03-02T07:52:03;2.13;;;1.80;;
7076;SDS011;3579;48.956;9.154;2024-03-02T07:54:29;2.07;;;1.83;;
7076;SDS011;3579;48.956;9.154;2024-03-02T07:56:55;1.97;;;1.60;;
7076;SDS011;3579;48.956;9.154;2024-03-02T07:59:21;2.00;;;1.70;;
7076;SDS011;3579;48.956;9.154;2024-03-02T08:01:48;1.70;;;1.53;;
7076;SDS011;3579;48.956;9.154;2024-03-02T08:04:15;1.87;;;1.70;;
7076;SDS011;3579;48.956;9.154;2024-03-02T08:06:41;2.27;;;1.60;;
7076;SDS011;3579;48.956;9.154;2024-03-02T08:09:07;2.10;;;1.80;;
7076;SDS011;3579;48.956;9.154;2024-03-02T08:11:36;1.97;;;1.43;;
7076;SDS011;3579;48.956;9.154;2024-03-02T08:14:03;2.17;;;1.77;;
7076;SDS011;3579;48.956;9.154;2024-03-02T08:16:29;1.73;;;1.63;;
7076;SDS011;3579;48.956;9.154;2024-03-02T08:18:55;1.77;;;1.63;;
7076;SDS011;3579;48.956;9.154;2024-03-02T08:21:24;1.77;;;1.60;;
7076;SDS011;3579;48.956;9.154;2024-03-02T08:23:51;2.60;;;1.70;;
7076;SDS011;3579;48.956;9.154;2024-03-02T08:26:17;1.87;;;1.67;;
7076;SDS011;3579;48.956;9.154;2024-03-02T08:28:43;1.60;;;1.50;;
7076;SDS011;3579;48.956;9.154;2024-03-02T08:31:09;1.87;;;1.60;;
7076;SDS011;3579;48.956;9.154;2024-03-02T08:33:35;1.77;;;1.60;;
7076;SDS011;3579;48.956;9.154;2024-03-02T08:36:01;1.67;;;1.57;;
7076;SDS011;3579;48.956;9.154;2024-03-02T08:38:28;1.70;;;1.50;;
7076;SDS011;3579;48.956;9.154;2024-03-02T08:40:54;1.60;;;1.50;;
7076;SDS011;3579;48.956;9.154;2024-03-02T08:43:20;2.10;;;1.83;;
7076;SDS011;3579;48.956;9.154;2024-03-02T08:45:48;2.00;;;1.70;;
7076;SDS011;3579;48.956;9.154;2024-03-02T08:48:14;1.77;;;1.60;;
7076;SDS011;3579;48.956;9.154;2024-03-02T08:50:40;1.93;;;1.40;;
7076;SDS011;3579;48.956;9.154;2024-03-02T08:53:06;1.83;;;1.50;;
7076;SDS011;3579;48.956;9.154;2024-03-02T08:55:32;1.70;;;1.60;;
7076;SDS011;3579;48.956;9.154;2024-03-02T08:57:58;2.00;;;1.80;;
7076;SDS011;3579;48.956;9.154;2024-03-02T09:00:25;1.70;;;1.60;;
7076;SDS011;3579;48.956;9.154;2024-03-02T09:02:51;2.57;;;1.90;;
7076;SDS011;3579;48.956;9.154;2024-03-02T09:05:17;1.90;;;1.70;;
7076;SDS011;3579;48.956;9.154;2024-03-02T09:07:43;1.77;;;1.60;;
7076;SDS011;3579;48.956;9.154;2024-03-02T09:10:09;1.60;;;1.50;;
7076;SDS011;3579;48.956;9.154;2024-03-02T09:12:35;1.80;;;1.70;;
7076;SDS011;3579;48.956;9.154;2024-03-02T09:15:03;1.73;;;1.50;;
7076;SDS011;3579;48.956;9.154;2024-03-02T09:17:29;1.87;;;1.67;;
7076;SDS011;3579;48.956;9.154;2024-03-02T09:19:55;1.70;;;1.60;;
7076;SDS011;3579;48.956;9.154;2024-03-02T09:22:21;1.60;;;1.50;;
7076;SDS011;3579;48.956;9.154;2024-03-02T09:24:48;1.77;;;1.67;;
7076;SDS011;3579;48.956;9.154;2024-03-02T09:27:14;2.00;;;1.80;;
7076;SDS011;3579;48.956;9.154;2024-03-02T09:29:40;2.50;;;1.80;;
7076;SDS011;3579;48.956;9.154;2024-03-02T09:32:07;2.17;;;1.60;;
7076;SDS011;3579;48.956;9.154;2024-03-02T09:34:33;2.13;;;1.93;;
7076;SDS011;3579;48.956;9.154;2024-03-02T09:36:59;1.60;;;1.50;;
7076;SDS011;3579;48.956;9.154;2024-03-02T09:39:25;1.87;;;1.50;;
7076;SDS011;3579;48.956;9.154;2024-03-02T09:41:51;1.80;;;1.60;;
7076;SDS011;3579;48.956;9.154;2024-03-02T09:44:18;1.70;;;1.60;;
7076;SDS011;3579;48.956;9.154;2024-03-02T09:46:48;1.70;;;1.53;;
7076;SDS011;3579;48.956;9.154;2024-03-02T09:49:15;1.80;;;1.60;;
7076;SDS011;3579;48.956;9.154;2024-03-02T09:51:44;1.97;;;1.73;;
7076;SDS011;3579;48.956;9.154;2024-03-02T09:54:13;1.90;;;1.60;;
7076;SDS011;3579;48.956;9.154;2024-03-02T09:56:39;1.80;;;1.60;;
7076;SDS011;3579;48.956;9.154;2024-03-02T09:59:05;1.80;;;1.70;;
7076;SDS011;3579;48.956;9.154;2024-03-02T10:01:31;1.60;;;1.50;;
7076;SDS011;3579;48.956;9.154;2024-03-02T10:04:00;2.07;;;1.83;;
7076;SDS011;3579;48.956;9.154;2024-03-02T10:06:28;1.70;;;1.50;;
7076;SDS011;3579;48.956;9.154;2024-03-02T10:08:55;1.87;;;1.60;;
7076;SDS011;3579;48.956;9.154;2024-03-02T10:16:30;1.33;;;1.23;;
7076;SDS011;3579;48.956;9.154;2024-03-02T10:18:56;2.03;;;1.67;;
7076;SDS011;3579;48.956;9.154;2024-03-02T10:21:22;1.70;;;1.57;;
7076;SDS011;3579;48.956;9.154;2024-03-02T10:23:50;1.63;;;1.53;;
7076;SDS011;3579;48.956;9.154;2024-03-02T10:26:17;1.90;;;1.57;;
7076;SDS011;3579;48.956;9.154;2024-03-02T10:28:46;1.93;;;1.60;;
7076;SDS011;3579;48.956;9.154;2024-03-02T10:31:17;1.63;;;1.53;;
7076;SDS011;3579;48.956;9.154;2024-03-02T10:33:43;2.00;;;1.70;;
7076;SDS011;3579;48.956;9.154;2024-03-02T10:36:10;1.50;;;1.40;;
7076;SDS011;3579;48.956;9.154;2024-03-02T10:38:36;1.73;;;1.50;;
7076;SDS011;3579;48.956;9.154;2024-03-02T10:41:02;1.60;;;1.40;;
7076;SDS011;3579;48.956;9.154;2024-03-02T10:43:29;1.50;;;1.40;;
7076;SDS011;3579;48.956;9.154;2024-03-02T10:45:55;1.37;;;1.27;;
7076;SDS011;3579;48.956;9.154;2024-03-02T10:48:23;1.77;;;1.50;;
7076;SDS011;3579;48.956;9.154;2024-03-02T10:50:52;1.50;;;1.40;;
7076;SDS011;3579;48.956;9.154;2024-03-02T10:53:18;1.53;;;1.43;;
7076;SDS011;3579;48.956;9.154;2024-03-02T10:55:45;1.50;;;1.40;;
7076;SDS011;3579;48.956;9.154;2024-03-02T10:58:17;1.87;;;1.30;;
7076;SDS011;3579;48.956;9.154;2024-03-02T11:00:45;1.97;;;1.50;;
7076;SDS011;3579;48.956;9.154;2024-03-02T11:03:11;1.50;;;1.40;;
7076;SDS011;3579;48.956;9.154;2024-03-02T11:05:38;1.57;;;1.47;;
7076;SDS011;3579;48.956;9.154;2024-03-02T11:08:13;1.50;;;1.40;;
7076;SDS011;3579;48.956;9.154;2024-03-02T11:10:51;1.67;;;1.57;;
7076;SDS011;3579;48.956;9.154;2024-03-02T11:13:23;1.70;;;1.60;;
7076;SDS011;3579;48.956;9.154;2024-03-02T11:15:56;1.50;;;1.40;;
7076;SDS011;3579;48.956;9.154;2024-03-02T11:18:29;1.60;;;1.50;;
7076;SDS011;3579;48.956;9.154;2024-03-02T11:20:56;1.70;;;1.60;;
7076;SDS011;3579;48.956;9.154;2024-03-02T11:23:32;1.83;;;1.50;;
7076;SDS011;3579;48.956;9.154;2024-03-02T11:26:18;1.50;;;1.40;;
7076;SDS011;3579;48.956;9.154;2024-03-02T11:28:48;1.50;;;1.40;;
7076;SDS011;3579;48.956;9.154;2024-03-02T11:31:14;1.40;;;1.30;;
7076;SDS011;3579;48.956;9.154;2024-03-02T11:33:40;1.50;;;1.40;;
7076;SDS011;3579;48.956;9.154;2024-03-02T11:36:07;1.60;;;1.50;;
7076;SDS011;3579;48.956;9.154;2024-03-02T11:38:34;2.07;;;1.60;;
7076;SDS011;3579;48.956;9.154;2024-03-02T11:41:07;1.50;;;1.40;;
7076;SDS011;3579;48.956;9.154;2024-03-02T11:43:36;1.50;;;1.40;;
7076;SDS011;3579;48.956;9.154;2024-03-02T11:46:05;1.87;;;1.60;;
7076;SDS011;3579;48.956;9.154;2024-03-02T11:48:35;1.50;;;1.40;;
7076;SDS011;3579;48.956;9.154;2024-03-02T11:51:05;1.50;;;1.40;;
7076;SDS011;3579;48.956;9.154;2024-03-02T11:53:31;1.40;;;1.30;;
7076;SDS011;3579;48.956;9.154;2024-03-02T11:55:58;1.93;;;1.60;;
7076;SDS011;3579;48.956;9.154;2024-03-02T11:58:24;1.40;;;1.30;;
7076;SDS011;3579;48.956;9.154;2024-03-02T12:00:55;1.57;;;1.47;;
7076;SDS011;3579;48.956;9.154;2024-03-02T12:03:22;1.63;;;1.30;;
7076;SDS011;3579;48.956;9.154;2024-03-02T12:05:51;1.30;;;1.20;;
7076;SDS011;3579;48.956;9.154;2024-03-02T12:08:20;1.40;;;1.30;;
7076;SDS011;3579;48.956;9.154;2024-03-02T12:10:59;1.40;;;1.30;;
7076;SDS011;3579;48.956;9.154;2024-03-02T12:13:26;1.50;;;1.30;;
7076;SDS011;3579;48.956;9.154;2024-03-02T12:15:54;1.50;;;1.40;;
7076;SDS011;3579;48.956;9.154;2024-03-02T12:18:21;1.50;;;1.40;;
7076;SDS011;3579;48.956;9.154;2024-03-02T12:20:48;1.47;;;1.37;;
7076;SDS011;3579;48.956;9.154;2024-03-02T12:23:18;1.60;;;1.50;;
7076;SDS011;3579;48.956;9.154;2024-03-02T12:25:44;1.40;;;1.30;;
7076;SDS011;3579;48.956;9.154;2024-03-02T12:28:11;1.50;;;1.40;;
7076;SDS011;3579;48.956;9.154;2024-03-02T12:30:37;1.33;;;1.23;;
7076;SDS011;3579;48.956;9.154;2024-03-02T12:33:03;1.47;;;1.30;;
7076;SDS011;3579;48.956;9.154;2024-03-02T12:35:30;1.37;;;1.27;;
7076;SDS011;3579;48.956;9.154;2024-03-02T12:37:57;1.53;;;1.40;;
7076;SDS011;3579;48.956;9.154;2024-03-02T12:40:23;1.80;;;1.50;;
7076;SDS011;3579;48.956;9.154;2024-03-02T12:42:50;1.40;;;1.27;;
7076;SDS011;3579;48.956;9.154;2024-03-02T12:45:16;1.30;;;1.20;;
7076;SDS011;3579;48.956;9.154;2024-03-02T12:47:49;1.50;;;1.40;;
7076;SDS011;3579;48.956;9.154;2024-03-02T12:50:16;1.60;;;1.50;;
7076;SDS011;3579;48.956;9.154;2024-03-02T12:52:42;1.90;;;1.57;;
7076;SDS011;3579;48.956;9.154;2024-03-02T12:55:09;1.40;;;1.30;;
7076;SDS011;3579;48.956;9.154;2024-03-02T12:57:35;1.40;;;1.30;;
7076;SDS011;3579;48.956;9.154;2024-03-02T13:00:03;1.40;;;1.20;;
7076;SDS011;3579;48.956;9.154;2024-03-02T13:02:34;1.40;;;1.30;;
7076;SDS011;3579;48.956;9.154;2024-03-02T13:05:02;1.40;;;1.30;;
7076;SDS011;3579;48.956;9.154;2024-03-02T13:07:28;1.30;;;1.20;;
7076;SDS011;3579;48.956;9.154;2024-03-02T13:09:55;1.50;;;1.40;;
7076;SDS011;3579;48.956;9.154;2024-03-02T13:12:24;1.53;;;1.27;;
7076;SDS011;3579;48.956;9.154;2024-03-02T13:14:53;1.30;;;1.20;;
7076;SDS011;3579;48.956;9.154;2024-03-02T13:17:20;1.60;;;1.50;;
7076;SDS011;3579;48.956;9.154;2024-03-02T13:19:53;1.40;;;1.30;;
7076;SDS011;3579;48.956;9.154;2024-03-02T13:22:20;2.30;;;1.40;;
7076;SDS011;3579;48.956;9.154;2024-03-02T13:24:47;1.30;;;1.20;;
7076;SDS011;3579;48.956;9.154;2024-03-02T13:27:13;1.40;;;1.30;;
7076;SDS011;3579;48.956;9.154;2024-03-02T13:29:40;3.07;;;1.60;;
7076;SDS011;3579;48.956;9.154;2024-03-02T13:32:06;1.50;;;1.40;;
7076;SDS011;3579;48.956;9.154;2024-03-02T13:34:32;1.30;;;1.20;;
7076;SDS011;3579;48.956;9.154;2024-03-02T13:36:58;1.47;;;1.37;;
7076;SDS011;3579;48.956;9.154;2024-03-02T13:39:26;1.40;;;1.30;;
7076;SDS011;3579;48.956;9.154;2024-03-02T13:41:53;1.30;;;1.20;;
7076;SDS011;3579;48.956;9.154;2024-03-02T13:44:27;1.70;;;1.40;;
7076;SDS011;3579;48.956;9.154;2024-03-02T13:46:53;1.30;;;1.20;;
7076;SDS011;3579;48.956;9.154;2024-03-02T13:49:19;1.30;;;1.20;;
7076;SDS011;3579;48.956;9.154;2024-03-02T13:51:45;1.57;;;1.40;;
7076;SDS011;3579;48.956;9.154;2024-03-02T13:54:11;1.40;;;1.30;;
7076;SDS011;3579;48.956;9.154;2024-03-02T13:56:37;1.40;;;1.30;;
7076;SDS011;3579;48.956;9.154;2024-03-02T13:59:05;1.50;;;1.30;;
7076;SDS011;3579;48.956;9.154;2024-03-02T14:01:31;1.40;;;1.30;;
7076;SDS011;3579;48.956;9.154;2024-03-02T14:03:58;1.27;;;1.17;;
7076;SDS011;3579;48.956;9.154;2024-03-02T14:06:24;1.40;;;1.30;;
7076;SDS011;3579;48.956;9.154;2024-03-02T14:08:52;1.40;;;1.30;;
7076;SDS011;3579;48.956;9.154;2024-03-02T14:11:18;1.50;;;1.30;;
7076;SDS011;3579;48.956;9.154;2024-03-02T14:13:45;1.47;;;1.37;;
7076;SDS011;3579;48.956;9.154;2024-03-02T14:16:15;1.30;;;1.20;;
7076;SDS011;3579;48.956;9.154;2024-03-02T14:18:41;1.40;;;1.30;;
7076;SDS011;3579;48.956;9.154;2024-03-02T14:21:07;1.40;;;1.30;;
7076;SDS011;3579;48.956;9.154;2024-03-02T14:23:33;1.53;;;1.30;;
7076;SDS011;3579;48.956;9.154;2024-03-02T14:25:59;1.30;;;1.20;;
7076;SDS011;3579;48.956;9.154;2024-03-02T14:28:25;1.50;;;1.40;;
7076;SDS011;3579;48.956;9.154;2024-03-02T14:30:51;1.30;;;1.20;;
7076;SDS011;3579;48.956;9.154;2024-03-02T14:33:17;1.50;;;1.30;;
7076;SDS011;3579;48.956;9.154;2024-03-02T14:35:44;1.30;;;1.20;;
7076;SDS011;3579;48.956;9.154;2024-03-02T14:38:11;1.30;;;1.20;;
7076;SDS011;3579;48.956;9.154;2024-03-02T14:40:37;1.87;;;1.37;;
7076;SDS011;3579;48.956;9.154;2024-03-02T14:43:04;1.37;;;1.20;;
7076;SDS011;3579;48.956;9.154;2024-03-02T14:45:30;1.50;;;1.33;;
7076;SDS011;3579;48.956;9.154;2024-03-02T14:47:56;1.40;;;1.30;;
7076;SDS011;3579;48.956;9.154;2024-03-02T14:50:27;1.40;;;1.30;;
7076;SDS011;3579;48.956;9.154;2024-03-02T14:52:54;1.40;;;1.30;;
7076;SDS011;3579;48.956;9.154;2024-03-02T14:55:23;1.20;;;1.00;;
7076;SDS011;3579;48.956;9.154;2024-03-02T14:57:49;1.77;;;1.33;;
7076;SDS011;3579;48.956;9.154;2024-03-02T15:00:15;1.43;;;1.30;;
7076;SDS011;3579;48.956;9.154;2024-03-02T15:02:42;1.30;;;1.20;;
7076;SDS011;3579;48.956;9.154;2024-03-02T15:05:09;1.50;;;1.30;;
7076;SDS011;3579;48.956;9.154;2024-03-02T15:07:35;1.40;;;1.30;;
7076;SDS011;3579;48.956;9.154;2024-03-02T15:10:01;1.37;;;1.27;;
7076;SDS011;3579;48.956;9.154;2024-03-02T15:12:27;1.30;;;1.20;;
7076;SDS011;3579;48.956;9.154;2024-03-02T15:14:53;1.30;;;1.20;;
7076;SDS011;3579;48.956;9.154;2024-03-02T15:17:19;1.53;;;1.43;;
7076;SDS011;3579;48.956;9.154;2024-03-02T15:19:45;1.40;;;1.20;;
7076;SDS011;3579;48.956;9.154;2024-03-02T15:22:12;1.40;;;1.30;;
7076;SDS011;3579;48.956;9.154;2024-03-02T15:24:38;1.30;;;1.20;;